createdAt,value
2023-02-27T00:00:18.747Z,1.33
2023-02-27T00:02:48.321Z,1.63
2023-02-27T00:05:15.720Z,1.33
2023-02-27T00:07:42.728Z,0.93
2023-02-27T00:10:11.211Z,1.67
2023-02-27T00:12:39.925Z,1.43
2023-02-27T00:15:08.429Z,1.00
2023-02-27T00:17:35.407Z,0.83
2023-02-27T00:20:02.419Z,1.50
2023-02-27T00:22:29.196Z,1.30
2023-02-27T00:24:55.957Z,1.30
2023-02-27T00:27:22.946Z,1.33
2023-02-27T00:29:51.075Z,1.80
2023-02-27T00:32:17.840Z,1.57
2023-02-27T00:34:44.612Z,1.30
2023-02-27T00:37:11.744Z,1.50
2023-02-27T00:39:38.439Z,1.57
2023-02-27T00:42:05.243Z,1.63
2023-02-27T00:44:31.948Z,1.97
2023-02-27T00:47:00.096Z,1.70
2023-02-27T00:49:26.850Z,1.60
2023-02-27T00:51:54.718Z,1.57
2023-02-27T00:54:21.506Z,1.63
2023-02-27T00:56:48.305Z,2.07
2023-02-27T00:59:15.414Z,1.67
2023-02-27T01:01:42.398Z,2.33
2023-02-27T01:04:11.357Z,1.93
2023-02-27T01:06:38.155Z,1.60
2023-02-27T01:09:04.968Z,1.60
2023-02-27T01:11:31.765Z,2.53
2023-02-27T01:13:58.575Z,1.80
2023-02-27T01:16:25.668Z,1.87
2023-02-27T01:18:52.515Z,2.00
2023-02-27T01:21:21.959Z,1.97
2023-02-27T01:23:48.746Z,1.83
2023-02-27T01:26:15.557Z,1.70
2023-02-27T01:28:42.436Z,2.00
2023-02-27T01:31:09.439Z,1.63
2023-02-27T01:33:36.250Z,1.30
2023-02-27T01:36:03.162Z,1.63
2023-02-27T01:38:31.292Z,2.23
2023-02-27T01:40:58.026Z,1.80
2023-02-27T01:43:24.796Z,1.90
2023-02-27T01:45:51.575Z,2.03
2023-02-27T01:48:22.082Z,2.00
2023-02-27T01:50:53.060Z,1.50
2023-02-27T01:53:20.646Z,1.40
2023-02-27T01:55:49.596Z,1.40
2023-02-27T01:58:16.681Z,1.50
2023-02-27T02:00:43.763Z,1.70
2023-02-27T02:03:19.931Z,1.20
2023-02-27T02:05:47.732Z,1.33
2023-02-27T02:08:17.320Z,0.93
2023-02-27T02:10:45.789Z,1.40
2023-02-27T02:13:14.469Z,1.10
2023-02-27T02:15:48.390Z,1.27
2023-02-27T02:18:23.182Z,1.90
2023-02-27T02:21:15.636Z,1.27
2023-02-27T02:24:20.261Z,1.00
2023-02-27T02:26:57.907Z,1.13
2023-02-27T02:29:57.146Z,0.90
2023-02-27T02:32:56.709Z,1.30
2023-02-27T02:36:00.585Z,1.13
2023-02-27T02:39:10.259Z,1.43
2023-02-27T02:41:50.503Z,1.07
2023-02-27T02:44:22.684Z,1.10
2023-02-27T02:47:01.206Z,1.27
2023-02-27T02:49:35.152Z,1.67
2023-02-27T02:52:06.504Z,1.13
2023-02-27T02:54:41.730Z,0.90
2023-02-27T02:57:15.547Z,1.20
2023-02-27T02:59:48.377Z,0.80
2023-02-27T03:02:19.482Z,0.80
2023-02-27T03:04:51.020Z,1.50
2023-02-27T03:07:23.893Z,1.10
2023-02-27T03:09:55.356Z,1.00
2023-02-27T03:12:24.811Z,1.47
2023-02-27T03:14:55.641Z,1.37
2023-02-27T03:17:27.635Z,1.70
2023-02-27T03:19:58.690Z,1.37
2023-02-27T03:22:30.393Z,1.27
2023-02-27T03:25:02.277Z,1.43
2023-02-27T03:27:32.709Z,2.20
2023-02-27T03:30:05.514Z,1.17
2023-02-27T03:32:40.476Z,1.60
2023-02-27T03:35:08.473Z,1.70
2023-02-27T03:37:42.947Z,1.83
2023-02-27T03:40:21.844Z,1.77
2023-02-27T03:42:55.261Z,1.80
2023-02-27T03:45:28.636Z,1.13
2023-02-27T03:47:55.658Z,1.63
2023-02-27T03:50:22.658Z,1.30
2023-02-27T03:52:50.066Z,1.60
2023-02-27T03:55:21.722Z,1.30
2023-02-27T03:57:50.719Z,1.23
2023-02-27T04:00:22.051Z,1.80
2023-02-27T04:02:51.602Z,0.90
2023-02-27T04:05:19.046Z,1.23
2023-02-27T04:07:54.100Z,1.07
2023-02-27T04:10:33.241Z,1.50
2023-02-27T04:13:17.334Z,1.30
2023-02-27T04:16:12.385Z,0.90
2023-02-27T04:18:56.739Z,1.10
2023-02-27T04:21:31.077Z,1.20
2023-02-27T04:24:04.674Z,1.20
2023-02-27T04:26:37.925Z,1.00
2023-02-27T04:29:08.912Z,1.40
2023-02-27T04:31:45.323Z,1.10
2023-02-27T04:34:19.746Z,1.37
2023-02-27T04:36:53.334Z,1.47
2023-02-27T04:39:24.536Z,0.93
2023-02-27T04:42:00.453Z,1.00
2023-02-27T04:44:28.873Z,1.13
2023-02-27T04:46:58.399Z,1.07
2023-02-27T04:49:28.845Z,1.03
2023-02-27T04:51:59.681Z,1.10
2023-02-27T04:54:31.805Z,0.87
2023-02-27T04:57:05.859Z,1.07
2023-02-27T04:59:40.830Z,1.00
2023-02-27T05:02:13.196Z,1.47
2023-02-27T05:04:43.793Z,0.90
2023-02-27T05:07:13.741Z,1.00
2023-02-27T05:09:46.627Z,0.90
2023-02-27T05:12:20.005Z,1.03
2023-02-27T05:14:54.722Z,1.50
2023-02-27T05:17:26.964Z,0.83
2023-02-27T05:19:53.741Z,1.08
2023-02-27T05:22:28.000Z,1.40
2023-02-27T05:25:01.849Z,1.30
2023-02-27T05:27:37.425Z,1.33
2023-02-27T05:30:10.523Z,0.77
2023-02-27T05:32:42.828Z,1.13
2023-02-27T05:35:16.899Z,1.20
2023-02-27T05:37:47.460Z,1.00
2023-02-27T05:40:22.685Z,1.40
2023-02-27T05:43:01.120Z,1.00
2023-02-27T05:45:31.182Z,1.30
2023-02-27T05:48:02.611Z,0.93
2023-02-27T05:50:32.894Z,1.10
2023-02-27T05:53:04.332Z,1.10
2023-02-27T05:55:36.431Z,1.47
2023-02-27T05:58:13.101Z,1.60
2023-02-27T06:00:44.287Z,1.73
2023-02-27T06:03:12.008Z,2.33
2023-02-27T06:05:42.020Z,1.80
2023-02-27T06:08:09.122Z,1.98
2023-02-27T06:10:36.284Z,1.60
2023-02-27T06:13:03.432Z,1.92
2023-02-27T06:15:32.192Z,1.47
2023-02-27T06:17:59.123Z,1.50
2023-02-27T06:20:26.212Z,2.27
2023-02-27T06:22:52.952Z,1.90
2023-02-27T06:25:19.832Z,1.90
2023-02-27T06:27:49.321Z,1.80
2023-02-27T06:30:17.025Z,2.10
2023-02-27T06:32:45.449Z,2.20
2023-02-27T06:35:12.562Z,2.00
2023-02-27T06:37:39.475Z,1.33
2023-02-27T06:40:07.760Z,2.70
2023-02-27T06:42:34.483Z,1.80
2023-02-27T06:45:01.266Z,1.20
2023-02-27T06:47:28.025Z,1.50
2023-02-27T06:49:56.127Z,2.13
2023-02-27T06:52:22.820Z,1.30
2023-02-27T06:54:49.601Z,1.90
2023-02-27T06:57:16.314Z,2.00
2023-02-27T06:59:43.068Z,2.00
2023-02-27T07:02:11.043Z,2.20
2023-02-27T07:04:43.349Z,2.87
2023-02-27T07:07:34.352Z,2.53
2023-02-27T07:09:58.774Z,1.70
2023-02-27T07:12:25.572Z,2.10
2023-02-27T07:14:52.451Z,2.40
2023-02-27T07:17:19.251Z,2.90
2023-02-27T07:19:46.078Z,3.45
2023-02-27T07:22:14.301Z,1.70
2023-02-27T07:24:41.067Z,2.07
2023-02-27T07:27:07.812Z,2.42
2023-02-27T07:29:34.585Z,2.00
2023-02-27T07:32:01.656Z,2.50
2023-02-27T07:34:28.646Z,2.33
2023-02-27T07:36:55.450Z,3.60
2023-02-27T07:39:23.921Z,1.70
2023-02-27T07:41:50.725Z,2.63
2023-02-27T07:44:17.674Z,2.70
2023-02-27T07:46:44.805Z,3.08
2023-02-27T07:49:11.832Z,3.97
2023-02-27T07:51:38.666Z,4.43
2023-02-27T07:54:05.699Z,2.70
2023-02-27T07:56:33.737Z,2.80
2023-02-27T07:59:00.694Z,3.10
2023-02-27T08:01:27.535Z,2.33
2023-02-27T08:03:55.119Z,3.33
2023-02-27T08:06:21.923Z,2.53
2023-02-27T08:08:48.673Z,2.40
2023-02-27T08:11:15.537Z,3.30
2023-02-27T08:14:01.202Z,3.73
2023-02-27T08:16:29.318Z,3.77
2023-02-27T08:18:56.461Z,3.37
2023-02-27T08:21:23.384Z,2.60
2023-02-27T08:23:50.231Z,2.50
2023-02-27T08:26:17.401Z,2.90
2023-02-27T08:28:45.575Z,2.73
2023-02-27T08:31:12.543Z,3.83
2023-02-27T08:33:39.562Z,2.93
2023-02-27T08:36:07.246Z,3.10
2023-02-27T08:38:34.039Z,2.73
2023-02-27T08:41:00.799Z,2.93
2023-02-27T08:43:27.696Z,2.70
2023-02-27T08:45:55.777Z,3.13
2023-02-27T08:48:22.532Z,2.60
2023-02-27T08:50:49.245Z,3.17
2023-02-27T08:53:16.022Z,2.50
2023-02-27T08:55:42.835Z,4.60
2023-02-27T08:58:10.009Z,4.17
2023-02-27T09:00:36.763Z,2.77
2023-02-27T09:03:04.896Z,3.17
2023-02-27T09:05:31.707Z,3.03
2023-02-27T09:07:58.478Z,2.73
2023-02-27T09:10:25.270Z,2.77
2023-02-27T09:12:52.068Z,2.40
2023-02-27T09:15:18.808Z,2.00
2023-02-27T09:17:45.569Z,3.10
2023-02-27T09:20:13.890Z,2.03
2023-02-27T09:22:40.676Z,2.60
2023-02-27T09:25:08.498Z,2.67
2023-02-27T09:27:35.509Z,2.33
2023-02-27T09:30:02.277Z,2.27
2023-02-27T09:32:29.288Z,2.97
2023-02-27T09:34:56.153Z,3.27
2023-02-27T09:37:24.263Z,1.93
2023-02-27T09:39:51.232Z,1.93
2023-02-27T09:42:20.406Z,2.77
2023-02-27T09:44:49.291Z,2.33
2023-02-27T09:47:21.044Z,2.90
2023-02-27T09:50:00.049Z,2.70
2023-02-27T09:52:29.512Z,2.43
2023-02-27T09:54:56.535Z,2.00
2023-02-27T09:57:33.369Z,2.83
2023-02-27T10:00:04.435Z,4.10
2023-02-27T10:02:44.167Z,2.03
2023-02-27T10:05:21.469Z,2.73
2023-02-27T10:07:53.550Z,2.43
2023-02-27T10:10:28.622Z,3.03
2023-02-27T10:13:09.010Z,2.60
2023-02-27T10:15:41.661Z,2.70
2023-02-27T10:18:28.148Z,2.73
2023-02-27T10:20:58.836Z,3.80
2023-02-27T10:23:35.843Z,1.20
2023-02-27T10:26:03.848Z,1.30
2023-02-27T10:28:32.327Z,1.90
2023-02-27T10:31:00.641Z,1.60
2023-02-27T10:33:33.624Z,2.30
2023-02-27T10:36:02.187Z,2.40
2023-02-27T10:38:34.337Z,0.87
2023-02-27T10:41:02.288Z,1.83
2023-02-27T10:43:29.661Z,1.90
2023-02-27T10:46:00.174Z,2.37
2023-02-27T10:48:26.968Z,2.27
2023-02-27T10:51:13.752Z,1.30
2023-02-27T10:53:41.823Z,2.07
2023-02-27T10:56:15.359Z,2.17
2023-02-27T10:58:42.122Z,2.03
2023-02-27T11:01:11.158Z,2.17
2023-02-27T11:03:41.486Z,2.50
2023-02-27T11:06:12.372Z,2.37
2023-02-27T11:08:39.183Z,2.27
2023-02-27T11:11:09.050Z,2.70
2023-02-27T11:13:37.938Z,2.60
2023-02-27T11:16:09.327Z,2.53
2023-02-27T11:18:37.594Z,2.33
2023-02-27T11:21:20.648Z,2.27
2023-02-27T11:23:53.807Z,1.57
2023-02-27T11:26:26.212Z,1.57
2023-02-27T11:29:14.020Z,2.47
2023-02-27T11:31:46.128Z,2.37
2023-02-27T11:34:22.581Z,2.53
2023-02-27T11:36:52.341Z,3.23
2023-02-27T11:39:25.333Z,2.63
2023-02-27T11:41:54.772Z,2.40
2023-02-27T11:44:49.106Z,2.53
2023-02-27T11:47:16.917Z,1.70
2023-02-27T11:50:00.427Z,2.50
2023-02-27T11:52:33.367Z,1.37
2023-02-27T11:55:03.570Z,1.47
2023-02-27T11:57:36.241Z,1.33
2023-02-27T12:00:08.416Z,1.70
2023-02-27T12:02:43.600Z,2.00
2023-02-27T12:05:16.889Z,1.70
2023-02-27T12:07:48.829Z,2.00
2023-02-27T12:10:20.025Z,1.40
2023-02-27T12:12:53.401Z,1.87
2023-02-27T12:15:27.638Z,1.17
2023-02-27T12:18:04.955Z,1.10
2023-02-27T12:20:37.704Z,1.50
2023-02-27T12:23:13.791Z,0.90
2023-02-27T12:25:45.835Z,0.87
2023-02-27T12:28:27.475Z,0.87
2023-02-27T12:31:05.936Z,1.07
2023-02-27T12:33:41.156Z,0.80
2023-02-27T12:36:11.637Z,0.90
2023-02-27T12:38:38.500Z,1.10
2023-02-27T12:41:29.830Z,1.90
2023-02-27T12:44:10.537Z,1.20
2023-02-27T12:46:46.469Z,1.90
2023-02-27T12:49:28.588Z,1.87
2023-02-27T12:52:06.035Z,1.47
2023-02-27T12:54:42.020Z,2.37
2023-02-27T12:57:31.696Z,1.47
2023-02-27T13:00:08.842Z,2.00
2023-02-27T13:02:47.215Z,0.57
2023-02-27T13:05:29.191Z,1.80
2023-02-27T13:08:02.482Z,1.97
2023-02-27T13:10:34.357Z,2.27
2023-02-27T13:13:08.807Z,1.60
2023-02-27T13:15:43.825Z,1.17
2023-02-27T13:18:31.907Z,2.20
2023-02-27T13:21:09.721Z,1.67
2023-02-27T13:23:46.088Z,1.30
2023-02-27T13:26:18.691Z,1.07
2023-02-27T13:28:45.777Z,2.07
2023-02-27T13:31:24.845Z,1.20
2023-02-27T13:33:58.975Z,2.17
2023-02-27T13:36:29.968Z,0.33
2023-02-27T13:38:57.307Z,1.60
2023-02-27T13:41:37.856Z,1.40
2023-02-27T13:44:47.733Z,1.63
2023-02-27T13:47:50.899Z,1.37
2023-02-27T13:50:51.188Z,1.03
2023-02-27T13:53:20.004Z,0.37
2023-02-27T13:55:46.991Z,0.90
2023-02-27T13:58:19.768Z,1.40
2023-02-27T14:00:56.727Z,0.93
2023-02-27T14:03:25.995Z,0.50
2023-02-27T14:05:58.330Z,0.97
2023-02-27T14:08:26.954Z,0.77
2023-02-27T14:11:00.767Z,0.53
2023-02-27T14:13:57.121Z,0.90
2023-02-27T14:16:55.863Z,1.00
2023-02-27T14:19:28.773Z,1.20
2023-02-27T14:22:02.117Z,0.83
2023-02-27T14:24:33.960Z,0.80
2023-02-27T14:27:02.197Z,1.00
2023-02-27T14:29:32.108Z,1.60
2023-02-27T14:32:01.788Z,1.00
2023-02-27T14:34:29.081Z,0.50
2023-02-27T14:36:58.080Z,0.83
2023-02-27T14:39:30.039Z,0.40
2023-02-27T14:42:18.142Z,0.80
2023-02-27T14:44:47.882Z,0.50
2023-02-27T14:47:18.836Z,0.90
2023-02-27T14:49:47.102Z,0.70
2023-02-27T14:52:19.842Z,0.50
2023-02-27T14:54:48.616Z,0.57
2023-02-27T14:57:18.042Z,0.70
2023-02-27T14:59:47.095Z,0.70
2023-02-27T15:02:20.665Z,0.60
2023-02-27T15:04:47.805Z,0.70
2023-02-27T15:07:19.655Z,1.13
2023-02-27T15:09:47.796Z,0.97
2023-02-27T15:12:18.205Z,0.93
2023-02-27T15:14:49.623Z,1.37
2023-02-27T15:17:18.067Z,0.60
2023-02-27T15:19:50.005Z,0.93
2023-02-27T15:22:32.373Z,0.90
2023-02-27T15:25:07.219Z,0.83
2023-02-27T15:27:35.557Z,0.80
2023-02-27T15:30:02.583Z,1.00
2023-02-27T15:32:32.721Z,0.87
2023-02-27T15:35:02.626Z,1.20
2023-02-27T15:37:32.295Z,0.30
2023-02-27T15:40:00.216Z,0.70
2023-02-27T15:42:31.373Z,0.50
2023-02-27T15:44:58.668Z,1.00
2023-02-27T15:47:28.672Z,0.50
2023-02-27T15:50:00.862Z,0.83
2023-02-27T15:52:32.914Z,0.40
2023-02-27T15:55:02.473Z,0.60
2023-02-27T15:57:32.513Z,0.50
2023-02-27T16:00:00.763Z,0.63
2023-02-27T16:02:31.161Z,0.80
2023-02-27T16:04:58.328Z,0.70
2023-02-27T16:07:26.313Z,0.60
2023-02-27T16:09:56.311Z,0.50
2023-02-27T16:12:28.681Z,1.10
2023-02-27T16:15:23.282Z,0.63
2023-02-27T16:18:21.416Z,0.60
2023-02-27T16:20:49.264Z,0.80
2023-02-27T16:23:19.176Z,0.67
2023-02-27T16:26:01.684Z,0.50
2023-02-27T16:28:30.296Z,0.80
2023-02-27T16:30:58.419Z,1.30
2023-02-27T16:33:30.714Z,0.80
2023-02-27T16:36:13.720Z,1.10
2023-02-27T16:38:40.423Z,1.10
2023-02-27T16:41:09.593Z,1.07
2023-02-27T16:43:36.313Z,1.17
2023-02-27T16:46:05.008Z,1.23
2023-02-27T16:48:31.797Z,1.67
2023-02-27T16:50:58.640Z,1.50
2023-02-27T16:53:25.385Z,1.20
2023-02-27T16:55:52.348Z,1.37
2023-02-27T16:58:19.093Z,1.30
2023-02-27T17:00:45.910Z,1.40
2023-02-27T17:03:14.099Z,1.00
2023-02-27T17:05:40.979Z,1.03
2023-02-27T17:08:09.363Z,1.30
2023-02-27T17:10:36.159Z,1.30
2023-02-27T17:13:02.897Z,1.07
2023-02-27T17:15:29.653Z,1.73
2023-02-27T17:17:56.327Z,1.10
2023-02-27T17:20:24.512Z,1.17
2023-02-27T17:22:51.261Z,1.17
2023-02-27T17:25:18.364Z,1.20
2023-02-27T17:27:45.263Z,1.60
2023-02-27T17:30:13.648Z,1.20
2023-02-27T17:32:40.415Z,1.30
2023-02-27T17:35:07.722Z,1.17
2023-02-27T17:37:36.004Z,1.77
2023-02-27T17:40:02.801Z,1.60
2023-02-27T17:42:29.567Z,1.73
2023-02-27T17:44:56.277Z,2.07
2023-02-27T17:47:23.229Z,1.70
2023-02-27T17:49:49.999Z,3.70
2023-02-27T17:52:16.764Z,2.33
2023-02-27T17:54:44.872Z,2.10
2023-02-27T17:57:11.607Z,1.70
2023-02-27T17:59:38.561Z,2.00
2023-02-27T18:02:05.304Z,1.70
2023-02-27T18:04:32.116Z,1.60
2023-02-27T18:06:58.953Z,1.43
2023-02-27T18:09:25.751Z,1.80
2023-02-27T18:11:53.904Z,1.60
2023-02-27T18:14:20.971Z,2.50
2023-02-27T18:16:47.683Z,1.63
2023-02-27T18:19:14.430Z,1.13
2023-02-27T18:21:41.255Z,1.90
2023-02-27T18:24:08.339Z,2.00
2023-02-27T18:26:35.553Z,1.60
2023-02-27T18:29:07.089Z,1.80
2023-02-27T18:31:36.111Z,1.60
2023-02-27T18:34:03.002Z,1.70
2023-02-27T18:36:30.461Z,2.63
2023-02-27T18:38:59.348Z,2.70
2023-02-27T18:41:27.388Z,1.63
2023-02-27T18:43:54.143Z,2.03
2023-02-27T18:46:22.764Z,1.50
2023-02-27T18:48:50.024Z,2.10
2023-02-27T18:51:17.129Z,1.90
2023-02-27T18:53:48.894Z,2.17
2023-02-27T18:56:18.864Z,2.03
2023-02-27T18:58:46.081Z,2.03
2023-02-27T19:01:19.290Z,1.60
2023-02-27T19:03:47.400Z,1.10
2023-02-27T19:06:14.183Z,1.30
2023-02-27T19:08:40.940Z,1.10
2023-02-27T19:11:07.737Z,1.30
2023-02-27T19:13:34.466Z,1.50
2023-02-27T19:16:03.329Z,1.40
2023-02-27T19:18:30.111Z,1.50
2023-02-27T19:21:02.607Z,1.80
2023-02-27T19:23:29.361Z,1.80
2023-02-27T19:25:59.220Z,2.17
2023-02-27T19:28:26.064Z,1.57
2023-02-27T19:30:53.130Z,2.10
2023-02-27T19:33:20.238Z,2.90
2023-02-27T19:35:47.120Z,2.00
2023-02-27T19:38:15.344Z,2.00
2023-02-27T19:40:42.051Z,2.00
2023-02-27T19:43:08.870Z,2.33
2023-02-27T19:45:39.724Z,1.90
2023-02-27T19:48:07.144Z,2.27
2023-02-27T19:50:33.896Z,2.07
2023-02-27T19:53:00.744Z,2.50
2023-02-27T19:55:28.862Z,2.40
2023-02-27T19:57:55.581Z,2.17
2023-02-27T20:00:23.208Z,2.63
2023-02-27T20:02:49.976Z,3.30
2023-02-27T20:05:16.783Z,3.23
2023-02-27T20:07:43.651Z,2.57
2023-02-27T20:10:11.896Z,3.40
2023-02-27T20:12:40.150Z,4.20
2023-02-27T20:15:08.207Z,3.60
2023-02-27T20:17:35.078Z,2.60
2023-02-27T20:20:02.124Z,3.17
2023-02-27T20:22:29.063Z,3.80
2023-02-27T20:24:56.292Z,3.37
2023-02-27T20:27:23.050Z,4.10
2023-02-27T20:29:54.959Z,4.33
2023-02-27T20:32:22.228Z,4.07
2023-02-27T20:34:49.143Z,3.47
2023-02-27T20:37:16.241Z,4.67
2023-02-27T20:39:43.390Z,4.03
2023-02-27T20:42:10.175Z,4.23
2023-02-27T20:44:37.065Z,4.17
2023-02-27T20:47:05.385Z,3.47
2023-02-27T20:49:32.386Z,3.63
2023-02-27T20:51:59.232Z,3.30
2023-02-27T20:54:25.917Z,3.23
2023-02-27T20:56:52.665Z,2.70
2023-02-27T20:59:21.224Z,4.07
2023-02-27T21:01:48.489Z,3.83
2023-02-27T21:04:17.720Z,2.77
2023-02-27T21:06:46.586Z,2.70
2023-02-27T21:09:13.704Z,2.93
2023-02-27T21:11:40.477Z,3.30
2023-02-27T21:14:09.014Z,3.67
2023-02-27T21:16:36.385Z,2.70
2023-02-27T21:19:03.254Z,2.90
2023-02-27T21:21:33.109Z,3.50
2023-02-27T21:24:00.509Z,2.80
2023-02-27T21:26:29.949Z,2.83
2023-02-27T21:28:59.678Z,2.57
2023-02-27T21:31:29.118Z,3.30
2023-02-27T21:33:57.421Z,4.10
2023-02-27T21:36:25.958Z,4.80
2023-02-27T21:38:57.335Z,3.03
2023-02-27T21:41:24.329Z,3.83
2023-02-27T21:43:51.228Z,4.50
2023-02-27T21:46:18.391Z,4.57
2023-02-27T21:48:45.282Z,4.20
2023-02-27T21:51:11.936Z,3.93
2023-02-27T21:53:38.731Z,6.40
2023-02-27T21:56:08.406Z,4.53
2023-02-27T21:58:35.709Z,2.80
2023-02-27T22:01:02.985Z,4.10
2023-02-27T22:03:29.778Z,4.27
2023-02-27T22:05:56.485Z,4.43
2023-02-27T22:08:23.319Z,3.83
2023-02-27T22:10:55.066Z,5.50
2023-02-27T22:13:23.315Z,4.27
2023-02-27T22:15:50.419Z,5.03
2023-02-27T22:18:17.206Z,5.00
2023-02-27T22:20:44.052Z,5.50
2023-02-27T22:23:10.824Z,6.40
2023-02-27T22:25:37.745Z,5.80
2023-02-27T22:28:04.581Z,5.63
2023-02-27T22:30:35.528Z,4.50
2023-02-27T22:33:02.372Z,5.50
2023-02-27T22:35:29.241Z,6.10
2023-02-27T22:37:56.038Z,4.90
2023-02-27T22:40:22.832Z,4.67
2023-02-27T22:42:49.622Z,4.83
2023-02-27T22:45:16.494Z,5.37
2023-02-27T22:47:44.617Z,5.00
2023-02-27T22:50:12.124Z,5.70
2023-02-27T22:52:38.888Z,5.90
2023-02-27T22:55:06.726Z,5.73
2023-02-27T22:57:33.471Z,5.20
2023-02-27T23:00:00.276Z,5.23
2023-02-27T23:02:26.990Z,5.20
2023-02-27T23:04:55.072Z,4.97
2023-02-27T23:07:21.801Z,5.13
2023-02-27T23:09:48.646Z,4.23
2023-02-27T23:12:15.439Z,3.80
2023-02-27T23:14:42.230Z,5.23
2023-02-27T23:17:09.050Z,5.10
2023-02-27T23:19:35.769Z,5.10
2023-02-27T23:22:03.847Z,6.20
2023-02-27T23:24:30.520Z,5.17
2023-02-27T23:26:57.326Z,6.90
2023-02-27T23:29:24.112Z,7.10
2023-02-27T23:31:51.048Z,4.77
2023-02-27T23:34:17.903Z,5.17
2023-02-27T23:36:44.659Z,4.43
2023-02-27T23:39:12.826Z,4.67
2023-02-27T23:41:39.573Z,5.20
2023-02-27T23:44:06.304Z,5.40
2023-02-27T23:46:33.120Z,4.73
2023-02-27T23:49:00.864Z,5.70
2023-02-27T23:51:30.238Z,4.70
2023-02-27T23:53:57.654Z,4.20
2023-02-27T23:56:27.763Z,5.10
2023-02-27T23:58:56.117Z,5.07
